createdAt,value
2018-11-28T00:00:49.277Z,8.30
2018-11-28T00:01:49.140Z,8.30
2018-11-28T00:02:49.006Z,8.30
2018-11-28T00:03:48.872Z,7.50
2018-11-28T00:04:48.738Z,8.00
2018-11-28T00:05:48.604Z,8.10
2018-11-28T00:06:48.469Z,8.50
2018-11-28T00:07:48.339Z,7.70
2018-11-28T00:08:48.200Z,8.00
2018-11-28T00:09:48.068Z,8.50
2018-11-28T00:10:47.933Z,8.50
2018-11-28T00:11:47.802Z,8.90
2018-11-28T00:12:47.665Z,8.30
2018-11-28T00:13:47.533Z,8.30
2018-11-28T00:14:47.396Z,8.70
2018-11-28T00:15:47.262Z,8.40
2018-11-28T00:16:47.127Z,8.60
2018-11-28T00:17:46.992Z,8.60
2018-11-28T00:18:46.858Z,8.30
2018-11-28T00:19:46.727Z,8.10
2018-11-28T00:20:46.591Z,8.00
2018-11-28T00:21:46.455Z,8.20
2018-11-28T00:22:46.323Z,8.10
2018-11-28T00:23:46.193Z,8.20
2018-11-28T00:24:46.053Z,8.20
2018-11-28T00:25:45.919Z,7.70
2018-11-28T00:26:45.784Z,7.90
2018-11-28T00:27:45.651Z,8.10
2018-11-28T00:28:45.516Z,8.20
2018-11-28T00:29:45.383Z,8.50
2018-11-28T00:30:45.249Z,8.70
2018-11-28T00:31:45.125Z,8.70
2018-11-28T00:32:44.981Z,9.70
2018-11-28T00:33:44.875Z,8.80
2018-11-28T00:34:44.714Z,9.30
2018-11-28T00:35:44.582Z,8.90
2018-11-28T00:36:44.443Z,9.00
2018-11-28T00:37:44.310Z,8.90
2018-11-28T00:38:44.179Z,7.90
2018-11-28T00:39:44.045Z,7.70
2018-11-28T00:40:43.908Z,7.30
2018-11-28T00:41:43.775Z,7.00
2018-11-28T00:42:43.641Z,7.10
2018-11-28T00:43:43.503Z,7.10
2018-11-28T00:44:43.369Z,6.70
2018-11-28T00:45:43.239Z,6.10
2018-11-28T00:46:43.107Z,5.60
2018-11-28T00:47:42.968Z,5.90
2018-11-28T00:48:42.833Z,6.20
2018-11-28T00:49:42.701Z,5.90
2018-11-28T00:50:42.563Z,5.90
2018-11-28T00:51:42.429Z,5.80
2018-11-28T00:52:42.295Z,5.80
2018-11-28T00:53:42.177Z,5.50
2018-11-28T00:54:42.028Z,5.80
2018-11-28T00:55:41.892Z,5.70
2018-11-28T00:56:41.758Z,5.90
2018-11-28T00:57:41.622Z,5.80
2018-11-28T00:58:41.489Z,6.30
2018-11-28T00:59:41.356Z,6.20
2018-11-28T01:00:41.221Z,5.60
2018-11-28T01:01:41.087Z,4.80
2018-11-28T01:02:40.955Z,4.40
2018-11-28T01:03:40.943Z,4.10
2018-11-28T01:04:40.685Z,4.10
2018-11-28T01:05:40.550Z,4.30
2018-11-28T01:06:40.415Z,3.70
2018-11-28T01:07:40.285Z,3.90
2018-11-28T01:08:40.146Z,3.80
2018-11-28T01:09:40.013Z,3.70
2018-11-28T01:10:39.877Z,4.00
2018-11-28T01:11:39.746Z,3.60
2018-11-28T01:12:39.607Z,3.80
2018-11-28T01:13:39.473Z,3.50
2018-11-28T01:14:39.341Z,3.60
2018-11-28T01:15:39.207Z,3.50
2018-11-28T01:16:39.075Z,3.90
2018-11-28T01:17:38.939Z,4.00
2018-11-28T01:18:38.803Z,3.60
2018-11-28T01:19:38.670Z,3.50
2018-11-28T01:20:38.536Z,3.80
2018-11-28T01:21:38.402Z,3.80
2018-11-28T01:22:38.266Z,4.10
2018-11-28T01:23:38.134Z,3.90
2018-11-28T01:24:38.002Z,3.90
2018-11-28T01:25:37.864Z,3.90
2018-11-28T01:26:37.729Z,3.80
2018-11-28T01:27:37.596Z,3.90
2018-11-28T01:28:37.461Z,4.10
2018-11-28T01:29:37.328Z,4.20
2018-11-28T01:30:37.193Z,3.80
2018-11-28T01:31:37.057Z,3.70
2018-11-28T01:32:36.925Z,3.20
2018-11-28T01:33:36.789Z,3.40
2018-11-28T01:34:36.654Z,3.40
2018-11-28T01:35:36.522Z,3.80
2018-11-28T01:36:36.387Z,3.60
2018-11-28T01:37:36.253Z,3.70
2018-11-28T01:38:36.119Z,3.20
2018-11-28T01:39:35.986Z,3.40
2018-11-28T01:40:35.850Z,3.10
2018-11-28T01:41:35.715Z,3.30
2018-11-28T01:42:35.581Z,3.00
2018-11-28T01:43:35.452Z,3.20
2018-11-28T01:44:35.312Z,3.30
2018-11-28T01:45:35.177Z,2.80
2018-11-28T01:46:35.043Z,3.00
2018-11-28T01:47:34.909Z,3.00
2018-11-28T01:48:34.781Z,3.10
2018-11-28T01:49:34.641Z,2.80
2018-11-28T01:50:34.506Z,3.00
2018-11-28T01:51:34.372Z,2.60
2018-11-28T01:52:34.235Z,3.10
2018-11-28T01:53:34.101Z,3.10
2018-11-28T01:54:33.969Z,3.00
2018-11-28T01:55:33.838Z,3.20
2018-11-28T01:56:33.699Z,2.90
2018-11-28T01:57:33.566Z,2.80
2018-11-28T01:58:33.431Z,2.90
2018-11-28T01:59:33.299Z,2.90
2018-11-28T02:00:33.161Z,2.90
2018-11-28T02:01:33.029Z,3.20
2018-11-28T02:02:32.894Z,3.20
2018-11-28T02:03:32.760Z,3.20
2018-11-28T02:04:32.624Z,3.10
2018-11-28T02:05:32.491Z,3.50
2018-11-28T02:06:32.357Z,3.30
2018-11-28T02:07:32.242Z,3.80
2018-11-28T02:08:32.086Z,3.60
2018-11-28T02:09:31.954Z,3.40
2018-11-28T02:10:31.823Z,3.20
2018-11-28T02:11:31.684Z,3.70
2018-11-28T02:12:31.550Z,3.60
2018-11-28T02:13:31.418Z,4.10
2018-11-28T02:14:31.283Z,4.00
2018-11-28T02:15:31.149Z,4.30
2018-11-28T02:16:31.012Z,4.30
2018-11-28T02:17:30.881Z,4.90
2018-11-28T02:18:30.744Z,4.50
2018-11-28T02:19:30.612Z,4.90
2018-11-28T02:20:30.478Z,4.60
2018-11-28T02:21:30.354Z,5.20
2018-11-28T02:22:30.207Z,5.40
2018-11-28T02:23:30.076Z,4.80
2018-11-28T02:24:29.939Z,4.80
2018-11-28T02:25:29.801Z,4.40
2018-11-28T02:26:29.668Z,4.40
2018-11-28T02:27:29.536Z,4.30
2018-11-28T02:28:29.401Z,4.00
2018-11-28T02:29:29.265Z,4.00
2018-11-28T02:30:29.130Z,3.30
2018-11-28T02:31:28.997Z,3.10
2018-11-28T02:32:28.863Z,3.20
2018-11-28T02:33:28.730Z,3.10
2018-11-28T02:34:28.593Z,3.20
2018-11-28T02:35:28.457Z,3.20
2018-11-28T02:36:28.324Z,3.40
2018-11-28T02:37:28.189Z,3.40
2018-11-28T02:38:28.053Z,3.30
2018-11-28T02:39:27.920Z,4.10
2018-11-28T02:40:27.784Z,3.90
2018-11-28T02:41:27.652Z,4.00
2018-11-28T02:42:27.522Z,3.90
2018-11-28T02:43:27.383Z,3.80
2018-11-28T02:44:27.247Z,4.00
2018-11-28T02:45:27.111Z,3.70
2018-11-28T02:46:26.977Z,4.20
2018-11-28T02:47:26.843Z,3.80
2018-11-28T02:48:26.706Z,3.70
2018-11-28T02:49:26.573Z,3.90
2018-11-28T02:50:26.437Z,3.90
2018-11-28T02:51:26.302Z,3.00
2018-11-28T02:52:26.167Z,4.80
2018-11-28T02:53:26.029Z,3.30
2018-11-28T02:54:25.896Z,2.70
2018-11-28T02:55:25.759Z,3.00
2018-11-28T02:56:25.626Z,3.20
2018-11-28T02:57:25.491Z,3.20
2018-11-28T02:58:25.355Z,2.90
2018-11-28T02:59:25.221Z,2.20
2018-11-28T03:00:25.086Z,2.20
2018-11-28T03:01:24.950Z,2.50
2018-11-28T03:02:24.815Z,2.20
2018-11-28T03:03:24.680Z,2.40
2018-11-28T03:04:24.543Z,2.40
2018-11-28T03:05:24.409Z,2.40
2018-11-28T03:06:24.274Z,2.50
2018-11-28T03:07:24.144Z,2.20
2018-11-28T03:08:24.005Z,2.20
2018-11-28T03:09:23.868Z,2.00
2018-11-28T03:10:23.747Z,2.20
2018-11-28T03:11:23.597Z,2.30
2018-11-28T03:12:23.459Z,2.30
2018-11-28T03:13:23.326Z,2.40
2018-11-28T03:14:23.192Z,2.60
2018-11-28T03:15:23.057Z,2.40
2018-11-28T03:16:22.919Z,2.60
2018-11-28T03:17:22.782Z,2.70
2018-11-28T03:18:22.651Z,2.50
2018-11-28T03:19:22.514Z,2.80
2018-11-28T03:20:22.378Z,2.80
2018-11-28T03:21:22.245Z,2.90
2018-11-28T03:22:22.143Z,2.50
2018-11-28T03:23:21.971Z,2.90
2018-11-28T03:24:21.833Z,3.00
2018-11-28T03:25:21.698Z,2.70
2018-11-28T03:26:21.565Z,3.20
2018-11-28T03:27:21.431Z,3.00
2018-11-28T03:28:21.290Z,3.00
2018-11-28T03:29:21.154Z,3.00
2018-11-28T03:30:21.057Z,2.70
2018-11-28T03:31:20.887Z,2.80
2018-11-28T03:32:20.753Z,2.90
2018-11-28T03:33:20.615Z,3.20
2018-11-28T03:34:20.478Z,3.00
2018-11-28T03:35:21.792Z,3.30
2018-11-28T03:36:20.202Z,3.10
2018-11-28T03:37:20.068Z,2.90
2018-11-28T03:38:19.931Z,2.90
2018-11-28T03:39:19.794Z,3.30
2018-11-28T03:40:19.659Z,3.10
2018-11-28T03:41:19.523Z,3.10
2018-11-28T03:42:19.385Z,3.40
2018-11-28T03:43:19.249Z,3.30
2018-11-28T03:44:19.114Z,3.10
2018-11-28T03:45:18.977Z,3.30
2018-11-28T03:46:18.842Z,3.00
2018-11-28T03:47:18.708Z,3.20
2018-11-28T03:48:18.573Z,3.20
2018-11-28T03:49:18.436Z,3.30
2018-11-28T03:50:18.313Z,3.00
2018-11-28T03:51:18.162Z,3.20
2018-11-28T03:52:18.026Z,3.10
2018-11-28T03:53:17.890Z,2.90
2018-11-28T03:54:17.750Z,2.90
2018-11-28T03:55:17.617Z,2.90
2018-11-28T03:56:17.480Z,2.90
2018-11-28T03:57:17.340Z,2.70
2018-11-28T03:58:17.204Z,3.00
2018-11-28T03:59:17.071Z,2.70
2018-11-28T04:00:16.932Z,3.10
2018-11-28T04:01:16.802Z,2.90
2018-11-28T04:02:16.660Z,2.50
2018-11-28T04:03:16.528Z,2.40
2018-11-28T04:04:16.386Z,2.50
2018-11-28T04:05:16.249Z,2.50
2018-11-28T04:06:16.125Z,2.10
2018-11-28T04:07:15.977Z,2.30
2018-11-28T04:08:15.842Z,2.10
2018-11-28T04:09:15.705Z,2.30
2018-11-28T04:10:15.571Z,2.30
2018-11-28T04:11:15.430Z,2.50
2018-11-28T04:12:15.293Z,2.40
2018-11-28T04:13:15.155Z,2.30
2018-11-28T04:14:15.022Z,2.20
2018-11-28T04:15:14.887Z,2.20
2018-11-28T04:16:14.760Z,2.30
2018-11-28T04:17:14.612Z,2.10
2018-11-28T04:18:14.474Z,2.30
2018-11-28T04:19:14.340Z,2.20
2018-11-28T04:20:14.201Z,2.30
2018-11-28T04:21:14.066Z,2.20
2018-11-28T04:22:13.935Z,2.00
2018-11-28T04:23:13.794Z,2.30
2018-11-28T04:24:13.656Z,2.60
2018-11-28T04:25:13.521Z,2.40
2018-11-28T04:26:13.384Z,2.20
2018-11-28T04:27:13.249Z,2.40
2018-11-28T04:28:13.109Z,2.00
2018-11-28T04:29:12.974Z,2.10
2018-11-28T04:30:12.845Z,2.10
2018-11-28T04:31:12.705Z,2.20
2018-11-28T04:32:12.564Z,2.30
2018-11-28T04:33:12.428Z,1.80
2018-11-28T04:34:12.290Z,1.80
2018-11-28T04:35:12.154Z,2.00
2018-11-28T04:36:12.017Z,1.90
2018-11-28T04:37:11.881Z,2.00
2018-11-28T04:38:11.743Z,2.10
2018-11-28T04:39:11.608Z,2.00
2018-11-28T04:40:11.469Z,1.70
2018-11-28T04:41:11.334Z,1.80
2018-11-28T04:42:11.197Z,1.70
2018-11-28T04:43:11.060Z,1.80
2018-11-28T04:44:10.921Z,2.10
2018-11-28T04:45:10.784Z,1.60
2018-11-28T04:46:10.647Z,1.70
2018-11-28T04:47:10.510Z,1.80
2018-11-28T04:48:10.376Z,2.00
2018-11-28T04:49:10.239Z,1.80
2018-11-28T04:50:10.103Z,1.90
2018-11-28T04:51:09.970Z,2.20
2018-11-28T04:52:09.863Z,2.20
2018-11-28T04:53:09.690Z,2.20
2018-11-28T04:54:09.609Z,2.10
2018-11-28T04:55:09.415Z,2.30
2018-11-28T04:56:09.278Z,2.10
2018-11-28T04:57:09.142Z,2.10
2018-11-28T04:58:09.006Z,2.30
2018-11-28T04:59:08.871Z,2.10
2018-11-28T05:00:08.732Z,1.80
2018-11-28T05:01:08.594Z,1.70
2018-11-28T05:02:08.457Z,1.60
2018-11-28T05:03:08.321Z,2.10
2018-11-28T05:04:08.185Z,1.80
2018-11-28T05:05:08.049Z,1.70
2018-11-28T05:06:07.909Z,1.70
2018-11-28T05:07:07.777Z,1.50
2018-11-28T05:08:07.635Z,1.80
2018-11-28T05:09:07.498Z,1.60
2018-11-28T05:10:07.362Z,1.60
2018-11-28T05:11:07.228Z,1.90
2018-11-28T05:12:07.089Z,1.90
2018-11-28T05:13:06.949Z,1.70
2018-11-28T05:14:06.814Z,1.70
2018-11-28T05:15:06.680Z,2.10
2018-11-28T05:16:06.541Z,1.70
2018-11-28T05:17:06.405Z,1.80
2018-11-28T05:18:06.267Z,1.70
2018-11-28T05:19:06.131Z,2.00
2018-11-28T05:20:05.994Z,1.80
2018-11-28T05:21:05.856Z,1.90
2018-11-28T05:22:05.722Z,1.90
2018-11-28T05:23:05.579Z,1.80
2018-11-28T05:24:05.444Z,1.90
2018-11-28T05:25:05.312Z,1.80
2018-11-28T05:26:05.168Z,1.80
2018-11-28T05:27:05.031Z,2.20
2018-11-28T05:28:04.903Z,1.80
2018-11-28T05:29:04.758Z,1.70
2018-11-28T05:30:04.622Z,1.60
2018-11-28T05:31:04.493Z,1.80
2018-11-28T05:32:04.347Z,1.60
2018-11-28T05:33:04.208Z,1.60
2018-11-28T05:34:04.073Z,1.70
2018-11-28T05:35:03.935Z,1.90
2018-11-28T05:36:03.797Z,1.80
2018-11-28T05:37:03.660Z,1.90
2018-11-28T05:38:03.524Z,2.00
2018-11-28T05:39:03.389Z,1.90
2018-11-28T05:40:03.249Z,1.90
2018-11-28T05:41:03.114Z,1.60
2018-11-28T05:42:02.975Z,1.70
2018-11-28T05:43:02.838Z,1.70
2018-11-28T05:44:02.701Z,1.90
2018-11-28T05:45:02.565Z,1.80
2018-11-28T05:46:02.428Z,1.80
2018-11-28T05:47:02.290Z,1.90
2018-11-28T05:48:02.153Z,1.70
2018-11-28T05:49:02.015Z,1.80
2018-11-28T05:50:01.885Z,1.90
2018-11-28T05:51:01.741Z,1.80
2018-11-28T05:52:01.604Z,1.70
2018-11-28T05:53:01.469Z,1.80
2018-11-28T05:54:01.330Z,1.90
2018-11-28T05:55:01.193Z,1.80
2018-11-28T05:56:01.054Z,1.70
2018-11-28T05:57:00.918Z,1.70
2018-11-28T05:58:00.780Z,1.50
2018-11-28T05:59:00.648Z,1.80
2018-11-28T06:00:00.506Z,1.70
2018-11-28T06:01:00.368Z,2.00
2018-11-28T06:02:00.232Z,1.70
2018-11-28T06:03:00.094Z,1.60
2018-11-28T06:03:59.974Z,1.50
2018-11-28T06:04:59.818Z,1.50
2018-11-28T06:05:59.682Z,1.70
2018-11-28T06:06:59.546Z,1.50
2018-11-28T06:07:59.407Z,1.40
2018-11-28T06:08:59.271Z,1.60
2018-11-28T06:09:59.132Z,1.40
2018-11-28T06:10:58.996Z,1.50
2018-11-28T06:11:58.856Z,1.40
2018-11-28T06:12:58.720Z,1.40
2018-11-28T06:13:58.586Z,1.40
2018-11-28T06:14:58.448Z,1.30
2018-11-28T06:15:58.308Z,1.50
2018-11-28T06:16:58.173Z,1.30
2018-11-28T06:17:58.039Z,1.30
2018-11-28T06:18:57.898Z,1.30
2018-11-28T06:19:57.761Z,1.30
2018-11-28T06:20:57.621Z,1.30
2018-11-28T06:21:57.485Z,1.20
2018-11-28T06:22:57.348Z,1.20
2018-11-28T06:23:57.210Z,1.20
2018-11-28T06:24:57.076Z,1.00
2018-11-28T06:25:56.937Z,1.30
2018-11-28T06:26:56.799Z,1.10
2018-11-28T06:27:56.660Z,1.10
2018-11-28T06:28:56.525Z,1.20
2018-11-28T06:29:56.387Z,1.20
2018-11-28T06:30:56.250Z,1.20
2018-11-28T06:31:56.113Z,1.10
2018-11-28T06:32:55.974Z,1.20
2018-11-28T06:33:55.838Z,1.20
2018-11-28T06:34:55.701Z,1.20
2018-11-28T06:35:55.564Z,1.20
2018-11-28T06:36:55.428Z,1.10
2018-11-28T06:37:55.289Z,1.20
2018-11-28T06:38:55.151Z,1.30
2018-11-28T06:39:55.014Z,1.10
2018-11-28T06:40:54.878Z,1.20
2018-11-28T06:41:54.750Z,1.30
2018-11-28T06:42:54.605Z,1.10
2018-11-28T06:43:54.465Z,1.10
2018-11-28T06:44:54.327Z,1.10
2018-11-28T06:45:54.191Z,1.10
2018-11-28T06:46:54.055Z,1.10
2018-11-28T06:47:53.917Z,1.20
2018-11-28T06:48:53.783Z,1.30
2018-11-28T06:49:53.642Z,1.30
2018-11-28T06:50:53.504Z,1.30
2018-11-28T06:51:53.367Z,1.30
2018-11-28T06:52:53.229Z,1.30
2018-11-28T06:53:53.096Z,1.40
2018-11-28T06:54:52.955Z,1.30
2018-11-28T06:55:52.818Z,1.30
2018-11-28T06:56:52.686Z,1.50
2018-11-28T06:57:52.544Z,1.40
2018-11-28T06:58:52.413Z,1.30
2018-11-28T06:59:52.270Z,1.50
2018-11-28T07:00:52.133Z,1.60
2018-11-28T07:01:51.996Z,1.50
2018-11-28T07:02:51.858Z,1.50
2018-11-28T07:03:51.719Z,1.40
2018-11-28T07:04:51.584Z,1.50
2018-11-28T07:05:51.444Z,1.40
2018-11-28T07:06:51.310Z,1.40
2018-11-28T07:07:51.171Z,1.60
2018-11-28T07:08:51.036Z,1.50
2018-11-28T07:09:50.896Z,1.30
2018-11-28T07:10:50.762Z,1.50
2018-11-28T07:11:50.622Z,1.40
2018-11-28T07:12:50.485Z,1.50
2018-11-28T07:13:50.395Z,1.40
2018-11-28T07:14:50.210Z,1.40
2018-11-28T07:15:50.072Z,1.50
2018-11-28T07:16:49.936Z,1.50
2018-11-28T07:17:49.801Z,1.30
2018-11-28T07:18:49.662Z,1.40
2018-11-28T07:19:49.524Z,1.40
2018-11-28T07:20:49.388Z,1.50
2018-11-28T07:21:49.250Z,1.30
2018-11-28T07:22:49.111Z,1.30
2018-11-28T07:23:48.979Z,1.30
2018-11-28T07:24:48.838Z,1.30
2018-11-28T07:25:48.701Z,1.30
2018-11-28T07:26:48.564Z,1.30
2018-11-28T07:27:48.424Z,1.30
2018-11-28T07:28:48.287Z,1.70
2018-11-28T07:29:48.155Z,1.60
2018-11-28T07:30:48.018Z,1.50
2018-11-28T07:31:47.879Z,1.30
2018-11-28T07:32:47.744Z,1.40
2018-11-28T07:33:47.604Z,1.40
2018-11-28T07:34:47.467Z,1.30
2018-11-28T07:35:47.330Z,1.20
2018-11-28T07:36:47.194Z,1.30
2018-11-28T07:37:47.056Z,1.40
2018-11-28T07:38:46.919Z,1.20
2018-11-28T07:39:46.781Z,1.20
2018-11-28T07:40:46.645Z,1.20
2018-11-28T07:41:46.507Z,1.30
2018-11-28T07:42:46.369Z,1.20
2018-11-28T07:43:46.233Z,1.10
2018-11-28T07:44:46.097Z,1.20
2018-11-28T07:45:46.003Z,1.10
2018-11-28T07:46:45.821Z,1.30
2018-11-28T07:47:45.682Z,1.10
2018-11-28T07:48:45.549Z,1.30
2018-11-28T07:49:45.410Z,1.20
2018-11-28T07:50:45.273Z,1.10
2018-11-28T07:51:45.136Z,1.20
2018-11-28T07:52:45.000Z,1.10
2018-11-28T07:53:44.862Z,1.30
2018-11-28T07:54:44.726Z,1.60
2018-11-28T07:55:44.588Z,1.10
2018-11-28T07:56:44.449Z,1.20
2018-11-28T07:57:44.312Z,1.20
2018-11-28T07:58:44.175Z,1.20
2018-11-28T07:59:44.040Z,1.20
2018-11-28T08:00:43.902Z,1.30
2018-11-28T08:01:43.765Z,1.30
2018-11-28T08:02:43.629Z,1.30
2018-11-28T08:03:43.490Z,1.10
2018-11-28T08:04:43.358Z,1.30
2018-11-28T08:05:43.228Z,1.50
2018-11-28T08:06:43.081Z,1.30
2018-11-28T08:07:42.944Z,1.40
2018-11-28T08:08:42.808Z,1.20
2018-11-28T08:09:42.669Z,1.40
2018-11-28T08:10:42.536Z,1.20
2018-11-28T08:11:42.398Z,1.30
2018-11-28T08:12:42.261Z,1.40
2018-11-28T08:13:42.122Z,1.60
2018-11-28T08:14:41.987Z,1.40
2018-11-28T08:15:41.848Z,1.30
2018-11-28T08:16:41.713Z,1.60
2018-11-28T08:17:41.577Z,1.40
2018-11-28T08:18:42.175Z,1.60
2018-11-28T08:19:41.303Z,1.40
2018-11-28T08:20:41.168Z,1.60
2018-11-28T08:21:41.036Z,1.40
2018-11-28T08:22:40.893Z,1.20
2018-11-28T08:23:40.756Z,1.30
2018-11-28T08:24:40.718Z,1.30
2018-11-28T08:25:40.483Z,1.30
2018-11-28T08:26:40.349Z,1.30
2018-11-28T08:27:40.350Z,1.30
2018-11-28T08:28:40.075Z,1.20
2018-11-28T08:29:39.939Z,1.40
2018-11-28T08:30:39.806Z,1.40
2018-11-28T08:31:39.665Z,1.20
2018-11-28T08:32:39.533Z,1.30
2018-11-28T08:33:39.396Z,1.30
2018-11-28T08:34:39.261Z,1.30
2018-11-28T08:35:39.124Z,1.20
2018-11-28T08:36:38.988Z,1.00
2018-11-28T08:37:38.850Z,1.00
2018-11-28T08:38:38.715Z,1.10
2018-11-28T08:39:38.580Z,1.10
2018-11-28T08:40:38.444Z,0.90
2018-11-28T08:41:38.308Z,1.10
2018-11-28T08:42:38.173Z,1.10
2018-11-28T08:43:38.037Z,1.00
2018-11-28T08:44:37.902Z,1.00
2018-11-28T08:45:37.768Z,1.00
2018-11-28T08:46:37.632Z,1.10
2018-11-28T08:47:37.496Z,0.90
2018-11-28T08:48:37.361Z,1.20
2018-11-28T08:49:37.227Z,2.70
2018-11-28T08:50:37.091Z,2.70
2018-11-28T08:51:37.461Z,2.10
2018-11-28T08:52:36.819Z,1.50
2018-11-28T08:53:36.685Z,1.60
2018-11-28T08:54:36.547Z,1.50
2018-11-28T08:55:36.414Z,2.30
2018-11-28T08:56:36.280Z,2.90
2018-11-28T08:57:36.145Z,2.90
2018-11-28T08:58:36.010Z,2.50
2018-11-28T08:59:35.873Z,2.70
2018-11-28T09:00:35.737Z,2.30
2018-11-28T09:01:35.604Z,2.50
2018-11-28T09:02:35.470Z,2.40
2018-11-28T09:03:35.332Z,2.30
2018-11-28T09:04:35.199Z,2.10
2018-11-28T09:05:35.065Z,2.00
2018-11-28T09:06:34.929Z,1.80
2018-11-28T09:07:34.794Z,2.10
2018-11-28T09:08:34.660Z,2.20
2018-11-28T09:09:34.524Z,2.10
2018-11-28T09:10:34.389Z,1.70
2018-11-28T09:11:34.256Z,1.90
2018-11-28T09:12:34.119Z,1.90
2018-11-28T09:13:33.983Z,1.60
2018-11-28T09:14:33.854Z,1.40
2018-11-28T09:15:33.728Z,1.00
2018-11-28T09:16:33.582Z,1.00
2018-11-28T09:17:33.447Z,0.90
2018-11-28T09:18:33.311Z,1.00
2018-11-28T09:19:33.178Z,0.70
2018-11-28T09:20:33.837Z,0.90
2018-11-28T09:21:32.909Z,0.80
2018-11-28T09:22:32.799Z,0.80
2018-11-28T09:23:32.638Z,0.90
2018-11-28T09:24:32.504Z,0.90
2018-11-28T09:25:32.459Z,0.80
2018-11-28T09:26:32.233Z,0.90
2018-11-28T09:27:32.100Z,0.90
2018-11-28T09:28:31.964Z,1.10
2018-11-28T09:29:31.830Z,1.00
2018-11-28T09:30:31.696Z,0.90
2018-11-28T09:31:31.785Z,1.00
2018-11-28T09:32:31.427Z,0.80
2018-11-28T09:33:31.293Z,0.90
2018-11-28T09:34:31.161Z,0.90
2018-11-28T09:35:31.024Z,0.90
2018-11-28T09:36:30.894Z,0.90
2018-11-28T09:37:30.757Z,0.90
2018-11-28T09:38:30.623Z,1.00
2018-11-28T09:39:30.490Z,0.90
2018-11-28T09:40:30.357Z,0.90
2018-11-28T09:41:30.227Z,0.90
2018-11-28T09:42:30.091Z,0.90
2018-11-28T09:43:29.959Z,0.90
2018-11-28T09:44:29.827Z,1.10
2018-11-28T09:45:29.689Z,0.90
2018-11-28T09:46:29.558Z,1.00
2018-11-28T09:47:29.424Z,1.10
2018-11-28T09:48:29.290Z,1.10
2018-11-28T09:49:29.161Z,0.90
2018-11-28T09:50:29.027Z,1.20
2018-11-28T09:51:28.890Z,1.20
2018-11-28T09:52:28.761Z,1.30
2018-11-28T09:53:28.629Z,1.10
2018-11-28T09:54:28.495Z,1.20
2018-11-28T09:55:28.363Z,1.10
2018-11-28T09:56:28.228Z,1.00
2018-11-28T09:57:28.095Z,1.00
2018-11-28T09:58:27.965Z,1.20
2018-11-28T09:59:27.832Z,1.00
2018-11-28T10:00:27.699Z,1.10
2018-11-28T10:01:27.570Z,1.00
2018-11-28T10:02:27.437Z,0.90
2018-11-28T10:03:27.301Z,0.90
2018-11-28T10:04:27.173Z,0.90
2018-11-28T10:05:27.037Z,0.90
2018-11-28T10:06:26.915Z,0.90
2018-11-28T10:07:26.779Z,0.90
2018-11-28T10:08:26.646Z,0.90
2018-11-28T10:09:26.511Z,0.90
2018-11-28T10:10:26.381Z,1.00
2018-11-28T10:11:26.249Z,0.90
2018-11-28T10:12:26.118Z,1.00
2018-11-28T10:13:25.987Z,1.10
2018-11-28T10:14:25.856Z,1.00
2018-11-28T10:15:25.722Z,1.10
2018-11-28T10:16:25.592Z,0.90
2018-11-28T10:17:25.463Z,1.00
2018-11-28T10:18:25.330Z,1.10
2018-11-28T10:19:25.199Z,0.90
2018-11-28T10:20:25.071Z,1.00
2018-11-28T10:21:24.939Z,1.10
2018-11-28T10:22:24.810Z,1.00
2018-11-28T10:23:24.680Z,1.10
2018-11-28T10:24:24.548Z,1.00
2018-11-28T10:25:24.418Z,1.20
2018-11-28T10:26:24.290Z,1.20
2018-11-28T10:27:24.155Z,1.10
2018-11-28T10:28:24.025Z,1.20
2018-11-28T10:29:23.898Z,1.20
2018-11-28T10:30:23.767Z,1.10
2018-11-28T10:31:23.640Z,1.10
2018-11-28T10:32:23.509Z,1.10
2018-11-28T10:33:23.375Z,1.20
2018-11-28T10:34:23.246Z,1.20
2018-11-28T10:35:23.112Z,1.20
2018-11-28T10:36:22.985Z,1.10
2018-11-28T10:37:22.855Z,1.10
2018-11-28T10:38:22.724Z,1.10
2018-11-28T10:39:22.595Z,1.30
2018-11-28T10:40:22.463Z,1.30
2018-11-28T10:41:22.334Z,1.20
2018-11-28T10:42:22.204Z,1.40
2018-11-28T10:43:22.074Z,1.30
2018-11-28T10:44:21.945Z,1.20
2018-11-28T10:45:21.815Z,1.10
2018-11-28T10:46:21.685Z,1.10
2018-11-28T10:47:21.553Z,1.30
2018-11-28T10:48:21.424Z,1.20
2018-11-28T10:49:21.294Z,1.20
2018-11-28T10:50:21.165Z,1.20
2018-11-28T10:51:21.034Z,1.30
2018-11-28T10:52:20.905Z,1.40
2018-11-28T10:53:20.776Z,1.20
2018-11-28T10:54:20.647Z,1.30
2018-11-28T10:55:20.517Z,1.30
2018-11-28T10:56:20.385Z,1.30
2018-11-28T10:57:20.259Z,1.10
2018-11-28T10:58:20.128Z,1.30
2018-11-28T10:59:19.999Z,1.20
2018-11-28T11:00:19.869Z,1.30
2018-11-28T11:01:19.739Z,1.30
2018-11-28T11:02:19.610Z,1.10
2018-11-28T11:03:19.481Z,1.10
2018-11-28T11:04:19.356Z,1.20
2018-11-28T11:05:19.222Z,1.20
2018-11-28T11:06:19.096Z,1.10
2018-11-28T11:07:18.961Z,1.10
2018-11-28T11:08:18.835Z,1.20
2018-11-28T11:09:18.704Z,1.10
2018-11-28T11:10:18.576Z,1.10
2018-11-28T11:11:18.444Z,1.00
2018-11-28T11:12:18.315Z,1.20
2018-11-28T11:13:18.189Z,1.10
2018-11-28T11:14:18.058Z,1.20
2018-11-28T11:15:17.928Z,1.20
2018-11-28T11:16:17.799Z,1.20
2018-11-28T11:17:17.670Z,1.20
2018-11-28T11:18:17.545Z,1.30
2018-11-28T11:19:17.410Z,1.10
2018-11-28T11:20:17.285Z,1.20
2018-11-28T11:21:17.151Z,1.20
2018-11-28T11:22:17.023Z,1.20
2018-11-28T11:23:16.890Z,1.30
2018-11-28T11:24:16.760Z,1.10
2018-11-28T11:25:16.632Z,1.00
2018-11-28T11:26:16.503Z,1.10
2018-11-28T11:27:16.371Z,1.10
2018-11-28T11:28:16.243Z,1.10
2018-11-28T11:29:16.114Z,1.30
2018-11-28T11:30:15.985Z,1.10
2018-11-28T11:31:15.853Z,1.00
2018-11-28T11:32:15.729Z,1.00
2018-11-28T11:33:15.595Z,1.10
2018-11-28T11:34:15.505Z,1.10
2018-11-28T11:35:15.334Z,1.20
2018-11-28T11:36:15.209Z,1.20
2018-11-28T11:37:15.082Z,1.20
2018-11-28T11:38:14.946Z,1.20
2018-11-28T11:39:14.814Z,1.10
2018-11-28T11:40:14.690Z,1.20
2018-11-28T11:41:14.556Z,1.10
2018-11-28T11:42:14.426Z,1.10
2018-11-28T11:43:14.293Z,1.00
2018-11-28T11:44:14.167Z,1.10
2018-11-28T11:45:14.034Z,1.00
2018-11-28T11:46:13.905Z,1.20
2018-11-28T11:47:13.774Z,1.30
2018-11-28T11:48:13.643Z,1.30
2018-11-28T11:49:13.515Z,1.00
2018-11-28T11:50:13.383Z,1.20
2018-11-28T11:51:13.253Z,1.10
2018-11-28T11:52:13.126Z,1.00
2018-11-28T11:53:13.095Z,1.10
2018-11-28T11:54:12.864Z,1.20
2018-11-28T11:55:12.736Z,1.00
2018-11-28T11:56:12.601Z,1.00
2018-11-28T11:57:12.474Z,1.10
2018-11-28T11:58:12.393Z,1.10
2018-11-28T11:59:12.209Z,1.10
2018-11-28T12:00:12.086Z,1.10
2018-11-28T12:01:11.951Z,1.20
2018-11-28T12:02:11.826Z,0.90
2018-11-28T12:03:11.700Z,1.10
2018-11-28T12:04:11.561Z,1.00
2018-11-28T12:05:11.490Z,1.00
2018-11-28T12:06:11.306Z,1.00
2018-11-28T12:07:11.179Z,1.00
2018-11-28T12:08:11.041Z,0.90
2018-11-28T12:09:10.914Z,1.20
2018-11-28T12:10:10.783Z,1.00
2018-11-28T12:11:10.652Z,1.00
2018-11-28T12:12:10.531Z,1.20
2018-11-28T12:13:10.393Z,1.10
2018-11-28T12:14:10.264Z,1.10
2018-11-28T12:15:10.138Z,1.10
2018-11-28T12:16:10.005Z,1.00
2018-11-28T12:17:09.874Z,0.90
2018-11-28T12:18:09.745Z,1.10
2018-11-28T12:19:09.612Z,1.00
2018-11-28T12:20:09.485Z,1.00
2018-11-28T12:21:09.357Z,1.00
2018-11-28T12:22:09.223Z,1.10
2018-11-28T12:23:09.091Z,1.10
2018-11-28T12:24:08.968Z,1.00
2018-11-28T12:25:08.833Z,1.00
2018-11-28T12:26:08.702Z,1.00
2018-11-28T12:27:08.571Z,0.80
2018-11-28T12:28:08.440Z,0.90
2018-11-28T12:29:08.314Z,1.00
2018-11-28T12:30:08.185Z,1.00
2018-11-28T12:31:08.052Z,0.90
2018-11-28T12:32:07.923Z,0.90
2018-11-28T12:33:07.794Z,1.10
2018-11-28T12:34:07.666Z,1.00
2018-11-28T12:35:07.533Z,1.00
2018-11-28T12:36:07.403Z,1.00
2018-11-28T12:37:07.275Z,1.10
2018-11-28T12:38:07.143Z,0.90
2018-11-28T12:39:07.015Z,1.00
2018-11-28T12:40:06.886Z,1.00
2018-11-28T12:41:06.755Z,1.10
2018-11-28T12:42:06.629Z,1.00
2018-11-28T12:43:06.496Z,1.10
2018-11-28T12:44:06.367Z,1.20
2018-11-28T12:45:06.237Z,1.00
2018-11-28T12:46:06.111Z,1.00
2018-11-28T12:47:05.979Z,1.00
2018-11-28T12:48:05.849Z,1.10
2018-11-28T12:49:05.722Z,1.00
2018-11-28T12:50:05.594Z,1.10
2018-11-28T12:51:05.463Z,1.10
2018-11-28T12:52:05.334Z,1.10
2018-11-28T12:53:05.207Z,1.00
2018-11-28T12:54:05.078Z,1.00
2018-11-28T12:55:04.950Z,1.00
2018-11-28T12:56:04.820Z,1.00
2018-11-28T12:57:04.691Z,1.00
2018-11-28T12:58:04.564Z,1.00
2018-11-28T12:59:04.433Z,0.90
2018-11-28T13:00:04.307Z,1.00
2018-11-28T13:01:04.178Z,0.90
2018-11-28T13:02:04.050Z,0.90
2018-11-28T13:03:03.920Z,0.90
2018-11-28T13:04:03.856Z,1.10
2018-11-28T13:05:03.664Z,0.90
2018-11-28T13:06:03.537Z,1.00
2018-11-28T13:07:03.409Z,1.20
2018-11-28T13:08:03.280Z,0.90
2018-11-28T13:09:03.151Z,1.10
2018-11-28T13:10:03.025Z,1.00
2018-11-28T13:11:02.895Z,1.00
2018-11-28T13:12:02.771Z,1.10
2018-11-28T13:13:02.639Z,1.00
2018-11-28T13:14:02.511Z,1.00
2018-11-28T13:15:02.384Z,1.00
2018-11-28T13:16:02.260Z,1.00
2018-11-28T13:17:02.127Z,1.10